sensor_id;sensor_type;location;lat;lon;timestamp;temperature;humidity
48666;DHT22;34452;50.796;4.994;2023-09-12T00:00:42;20.50;99.90
48666;DHT22;34452;50.796;4.994;2023-09-12T00:03:08;20.50;99.90
48666;DHT22;34452;50.796;4.994;2023-09-12T00:05:34;20.50;99.90
48666;DHT22;34452;50.796;4.994;2023-09-12T00:08:00;20.40;99.90
48666;DHT22;34452;50.796;4.994;2023-09-12T00:10:25;20.40;99.90
48666;DHT22;34452;50.796;4.994;2023-09-12T00:12:51;20.20;99.90
48666;DHT22;34452;50.796;4.994;2023-09-12T00:15:16;20.20;99.90
48666;DHT22;34452;50.796;4.994;2023-09-12T00:17:45;20.00;99.90
48666;DHT22;34452;50.796;4.994;2023-09-12T00:20:10;20.10;99.90
48666;DHT22;34452;50.796;4.994;2023-09-12T00:22:36;20.10;99.90
48666;DHT22;34452;50.796;4.994;2023-09-12T00:25:02;20.10;99.90
48666;DHT22;34452;50.796;4.994;2023-09-12T00:27:28;20.00;99.90
48666;DHT22;34452;50.796;4.994;2023-09-12T00:29:54;19.90;99.90
48666;DHT22;34452;50.796;4.994;2023-09-12T00:32:19;19.80;99.90
48666;DHT22;34452;50.796;4.994;2023-09-12T00:34:45;19.80;99.90
48666;DHT22;34452;50.796;4.994;2023-09-12T00:37:11;19.70;99.90
48666;DHT22;34452;50.796;4.994;2023-09-12T00:39:37;19.70;99.90
48666;DHT22;34452;50.796;4.994;2023-09-12T00:42:03;19.70;99.90
48666;DHT22;34452;50.796;4.994;2023-09-12T00:44:28;19.80;99.90
48666;DHT22;34452;50.796;4.994;2023-09-12T00:46:54;19.80;99.90
48666;DHT22;34452;50.796;4.994;2023-09-12T00:49:20;19.90;99.90
48666;DHT22;34452;50.796;4.994;2023-09-12T00:51:47;19.90;99.90
48666;DHT22;34452;50.796;4.994;2023-09-12T00:54:14;19.80;99.90
48666;DHT22;34452;50.796;4.994;2023-09-12T00:56:40;19.80;99.90
48666;DHT22;34452;50.796;4.994;2023-09-12T00:59:06;19.70;99.90
48666;DHT22;34452;50.796;4.994;2023-09-12T01:01:32;19.60;99.90
48666;DHT22;34452;50.796;4.994;2023-09-12T01:03:58;19.70;99.90
48666;DHT22;34452;50.796;4.994;2023-09-12T01:06:24;19.70;99.90
48666;DHT22;34452;50.796;4.994;2023-09-12T01:08:52;19.70;99.90
48666;DHT22;34452;50.796;4.994;2023-09-12T01:11:17;19.70;99.90
48666;DHT22;34452;50.796;4.994;2023-09-12T01:13:43;19.70;99.90
48666;DHT22;34452;50.796;4.994;2023-09-12T01:16:09;19.70;99.90
48666;DHT22;34452;50.796;4.994;2023-09-12T01:18:35;19.70;99.90
48666;DHT22;34452;50.796;4.994;2023-09-12T01:23:41;19.60;99.90
48666;DHT22;34452;50.796;4.994;2023-09-12T01:26:17;19.60;99.90
48666;DHT22;34452;50.796;4.994;2023-09-12T01:28:43;19.50;99.90
48666;DHT22;34452;50.796;4.994;2023-09-12T01:31:10;19.60;99.90
48666;DHT22;34452;50.796;4.994;2023-09-12T01:33:37;19.50;99.90
48666;DHT22;34452;50.796;4.994;2023-09-12T01:36:02;19.50;99.90
48666;DHT22;34452;50.796;4.994;2023-09-12T01:38:28;19.50;99.90
48666;DHT22;34452;50.796;4.994;2023-09-12T01:40:55;19.60;99.90
48666;DHT22;34452;50.796;4.994;2023-09-12T01:43:21;19.50;99.90
48666;DHT22;34452;50.796;4.994;2023-09-12T01:45:52;19.50;99.90
48666;DHT22;34452;50.796;4.994;2023-09-12T01:48:19;19.50;99.90
48666;DHT22;34452;50.796;4.994;2023-09-12T01:50:44;19.50;99.90
48666;DHT22;34452;50.796;4.994;2023-09-12T01:53:10;19.40;99.90
48666;DHT22;34452;50.796;4.994;2023-09-12T01:55:36;19.40;99.90
48666;DHT22;34452;50.796;4.994;2023-09-12T01:58:03;19.40;99.90
48666;DHT22;34452;50.796;4.994;2023-09-12T02:00:29;19.40;99.90
48666;DHT22;34452;50.796;4.994;2023-09-12T02:02:55;19.40;99.90
48666;DHT22;34452;50.796;4.994;2023-09-12T02:05:21;19.40;99.90
48666;DHT22;34452;50.796;4.994;2023-09-12T02:07:47;19.30;99.90
48666;DHT22;34452;50.796;4.994;2023-09-12T02:10:13;19.10;99.90
48666;DHT22;34452;50.796;4.994;2023-09-12T02:12:39;19.00;99.90
48666;DHT22;34452;50.796;4.994;2023-09-12T02:15:05;19.10;99.90
48666;DHT22;34452;50.796;4.994;2023-09-12T02:17:31;19.10;99.90
48666;DHT22;34452;50.796;4.994;2023-09-12T02:19:56;19.10;99.90
48666;DHT22;34452;50.796;4.994;2023-09-12T02:22:22;19.10;99.90
48666;DHT22;34452;50.796;4.994;2023-09-12T02:24:48;19.10;99.90
48666;DHT22;34452;50.796;4.994;2023-09-12T02:27:13;19.10;99.90
48666;DHT22;34452;50.796;4.994;2023-09-12T02:29:39;19.20;99.90
48666;DHT22;34452;50.796;4.994;2023-09-12T02:32:05;19.20;99.90
48666;DHT22;34452;50.796;4.994;2023-09-12T02:34:31;19.20;99.90
48666;DHT22;34452;50.796;4.994;2023-09-12T02:36:57;19.20;99.90
48666;DHT22;34452;50.796;4.994;2023-09-12T02:39:23;19.20;99.90
48666;DHT22;34452;50.796;4.994;2023-09-12T02:41:48;19.20;99.90
48666;DHT22;34452;50.796;4.994;2023-09-12T02:44:14;19.20;99.90
48666;DHT22;34452;50.796;4.994;2023-09-12T02:46:40;19.20;99.90
48666;DHT22;34452;50.796;4.994;2023-09-12T02:49:05;19.20;99.90
48666;DHT22;34452;50.796;4.994;2023-09-12T02:51:31;19.20;99.90
48666;DHT22;34452;50.796;4.994;2023-09-12T02:53:56;19.10;99.90
48666;DHT22;34452;50.796;4.994;2023-09-12T02:56:22;19.10;99.90
48666;DHT22;34452;50.796;4.994;2023-09-12T02:58:48;19.10;99.90
48666;DHT22;34452;50.796;4.994;2023-09-12T03:01:15;19.10;99.90
48666;DHT22;34452;50.796;4.994;2023-09-12T03:03:41;19.20;99.90
48666;DHT22;34452;50.796;4.994;2023-09-12T03:06:07;19.20;99.90
48666;DHT22;34452;50.796;4.994;2023-09-12T03:08:32;19.20;99.90
48666;DHT22;34452;50.796;4.994;2023-09-12T03:10:58;19.30;99.90
48666;DHT22;34452;50.796;4.994;2023-09-12T03:13:24;19.40;99.90
48666;DHT22;34452;50.796;4.994;2023-09-12T03:15:50;19.30;99.90
48666;DHT22;34452;50.796;4.994;2023-09-12T03:18:16;19.30;99.90
48666;DHT22;34452;50.796;4.994;2023-09-12T03:20:42;19.30;99.90
48666;DHT22;34452;50.796;4.994;2023-09-12T03:23:07;19.30;99.90
48666;DHT22;34452;50.796;4.994;2023-09-12T03:25:36;19.40;99.90
48666;DHT22;34452;50.796;4.994;2023-09-12T03:28:06;19.40;99.90
48666;DHT22;34452;50.796;4.994;2023-09-12T03:30:35;19.40;99.90
48666;DHT22;34452;50.796;4.994;2023-09-12T03:33:01;19.40;99.90
48666;DHT22;34452;50.796;4.994;2023-09-12T03:35:31;19.40;99.90
48666;DHT22;34452;50.796;4.994;2023-09-12T03:37:57;19.50;99.90
48666;DHT22;34452;50.796;4.994;2023-09-12T03:40:22;19.50;99.90
48666;DHT22;34452;50.796;4.994;2023-09-12T03:42:48;19.50;99.90
48666;DHT22;34452;50.796;4.994;2023-09-12T03:45:13;19.60;99.90
48666;DHT22;34452;50.796;4.994;2023-09-12T03:47:39;19.60;99.90
48666;DHT22;34452;50.796;4.994;2023-09-12T03:50:05;19.60;99.90
48666;DHT22;34452;50.796;4.994;2023-09-12T03:52:31;19.60;99.90
48666;DHT22;34452;50.796;4.994;2023-09-12T03:54:56;19.60;99.90
48666;DHT22;34452;50.796;4.994;2023-09-12T03:57:22;19.60;99.90
48666;DHT22;34452;50.796;4.994;2023-09-12T03:59:48;19.60;99.90
48666;DHT22;34452;50.796;4.994;2023-09-12T04:02:13;19.60;99.90
48666;DHT22;34452;50.796;4.994;2023-09-12T04:04:39;19.60;99.90
48666;DHT22;34452;50.796;4.994;2023-09-12T04:07:04;19.60;99.90
48666;DHT22;34452;50.796;4.994;2023-09-12T04:09:31;19.60;99.90
48666;DHT22;34452;50.796;4.994;2023-09-12T04:11:56;19.60;99.90
48666;DHT22;34452;50.796;4.994;2023-09-12T04:14:22;19.70;99.90
48666;DHT22;34452;50.796;4.994;2023-09-12T04:16:48;19.70;99.90
48666;DHT22;34452;50.796;4.994;2023-09-12T04:19:13;19.70;99.90
48666;DHT22;34452;50.796;4.994;2023-09-12T04:21:39;19.70;99.90
48666;DHT22;34452;50.796;4.994;2023-09-12T04:24:05;19.60;99.90
48666;DHT22;34452;50.796;4.994;2023-09-12T04:26:31;19.60;99.90
48666;DHT22;34452;50.796;4.994;2023-09-12T04:28:56;19.50;99.90
48666;DHT22;34452;50.796;4.994;2023-09-12T04:31:22;19.50;99.90
48666;DHT22;34452;50.796;4.994;2023-09-12T04:33:50;19.40;99.90
48666;DHT22;34452;50.796;4.994;2023-09-12T04:36:15;19.30;99.90
48666;DHT22;34452;50.796;4.994;2023-09-12T04:38:41;19.30;99.90
48666;DHT22;34452;50.796;4.994;2023-09-12T04:41:07;19.40;99.90
48666;DHT22;34452;50.796;4.994;2023-09-12T04:43:32;19.40;99.90
48666;DHT22;34452;50.796;4.994;2023-09-12T04:45:58;19.40;99.90
48666;DHT22;34452;50.796;4.994;2023-09-12T04:48:24;19.40;99.90
48666;DHT22;34452;50.796;4.994;2023-09-12T04:50:49;19.40;99.90
48666;DHT22;34452;50.796;4.994;2023-09-12T04:53:16;19.30;99.90
48666;DHT22;34452;50.796;4.994;2023-09-12T04:55:42;19.20;99.90
48666;DHT22;34452;50.796;4.994;2023-09-12T04:58:07;19.20;99.90
48666;DHT22;34452;50.796;4.994;2023-09-12T05:00:33;19.20;99.90
48666;DHT22;34452;50.796;4.994;2023-09-12T05:02:59;19.20;99.90
48666;DHT22;34452;50.796;4.994;2023-09-12T05:05:25;19.10;99.90
48666;DHT22;34452;50.796;4.994;2023-09-12T05:07:51;19.10;99.90
48666;DHT22;34452;50.796;4.994;2023-09-12T05:10:19;19.20;99.90
48666;DHT22;34452;50.796;4.994;2023-09-12T05:12:45;19.20;99.90
48666;DHT22;34452;50.796;4.994;2023-09-12T05:15:10;19.20;99.90
48666;DHT22;34452;50.796;4.994;2023-09-12T05:17:36;19.20;99.90
48666;DHT22;34452;50.796;4.994;2023-09-12T05:20:02;19.30;99.90
48666;DHT22;34452;50.796;4.994;2023-09-12T05:22:30;19.30;99.90
48666;DHT22;34452;50.796;4.994;2023-09-12T05:24:56;19.30;99.90
48666;DHT22;34452;50.796;4.994;2023-09-12T05:27:21;19.20;99.90
48666;DHT22;34452;50.796;4.994;2023-09-12T05:29:48;19.30;99.90
48666;DHT22;34452;50.796;4.994;2023-09-12T05:32:14;19.30;99.90
48666;DHT22;34452;50.796;4.994;2023-09-12T05:34:41;19.20;99.90
48666;DHT22;34452;50.796;4.994;2023-09-12T05:37:06;19.10;99.90
48666;DHT22;34452;50.796;4.994;2023-09-12T05:39:32;19.10;99.90
48666;DHT22;34452;50.796;4.994;2023-09-12T05:41:57;19.00;99.90
48666;DHT22;34452;50.796;4.994;2023-09-12T05:44:23;19.00;99.90
48666;DHT22;34452;50.796;4.994;2023-09-12T05:46:49;19.00;99.90
48666;DHT22;34452;50.796;4.994;2023-09-12T05:49:15;18.90;99.90
48666;DHT22;34452;50.796;4.994;2023-09-12T05:51:41;18.90;99.90
48666;DHT22;34452;50.796;4.994;2023-09-12T05:54:07;18.90;99.90
48666;DHT22;34452;50.796;4.994;2023-09-12T05:56:34;18.90;99.90
48666;DHT22;34452;50.796;4.994;2023-09-12T05:58:59;18.90;99.90
48666;DHT22;34452;50.796;4.994;2023-09-12T06:01:25;18.90;99.90
48666;DHT22;34452;50.796;4.994;2023-09-12T06:03:51;18.90;99.90
48666;DHT22;34452;50.796;4.994;2023-09-12T06:06:17;18.90;99.90
48666;DHT22;34452;50.796;4.994;2023-09-12T06:08:43;18.90;99.90
48666;DHT22;34452;50.796;4.994;2023-09-12T06:11:09;18.80;99.90
48666;DHT22;34452;50.796;4.994;2023-09-12T06:13:34;18.80;99.90
48666;DHT22;34452;50.796;4.994;2023-09-12T06:16:03;18.90;99.90
48666;DHT22;34452;50.796;4.994;2023-09-12T06:18:29;18.90;99.90
48666;DHT22;34452;50.796;4.994;2023-09-12T06:20:57;19.00;99.90
48666;DHT22;34452;50.796;4.994;2023-09-12T06:23:23;19.10;99.90
48666;DHT22;34452;50.796;4.994;2023-09-12T06:25:49;19.20;99.90
48666;DHT22;34452;50.796;4.994;2023-09-12T06:28:24;19.20;99.90
48666;DHT22;34452;50.796;4.994;2023-09-12T06:30:50;19.30;99.90
48666;DHT22;34452;50.796;4.994;2023-09-12T06:33:15;19.30;99.90
48666;DHT22;34452;50.796;4.994;2023-09-12T06:35:41;19.30;99.90
48666;DHT22;34452;50.796;4.994;2023-09-12T06:38:07;19.30;99.90
48666;DHT22;34452;50.796;4.994;2023-09-12T06:40:32;19.40;99.90
48666;DHT22;34452;50.796;4.994;2023-09-12T06:42:58;19.40;99.90
48666;DHT22;34452;50.796;4.994;2023-09-12T06:45:24;19.50;99.90
48666;DHT22;34452;50.796;4.994;2023-09-12T06:47:49;19.50;99.90
48666;DHT22;34452;50.796;4.994;2023-09-12T06:50:15;19.60;99.90
48666;DHT22;34452;50.796;4.994;2023-09-12T06:52:40;19.60;99.90
48666;DHT22;34452;50.796;4.994;2023-09-12T06:55:06;19.60;99.90
48666;DHT22;34452;50.796;4.994;2023-09-12T06:57:32;19.70;99.90
48666;DHT22;34452;50.796;4.994;2023-09-12T06:59:58;19.70;99.90
48666;DHT22;34452;50.796;4.994;2023-09-12T07:02:23;19.70;99.90
48666;DHT22;34452;50.796;4.994;2023-09-12T07:04:49;19.80;99.90
48666;DHT22;34452;50.796;4.994;2023-09-12T07:07:15;19.80;99.90
48666;DHT22;34452;50.796;4.994;2023-09-12T07:09:40;19.80;99.90
48666;DHT22;34452;50.796;4.994;2023-09-12T07:12:06;19.80;99.90
48666;DHT22;34452;50.796;4.994;2023-09-12T07:14:32;19.90;99.90
48666;DHT22;34452;50.796;4.994;2023-09-12T07:16:57;20.00;99.90
48666;DHT22;34452;50.796;4.994;2023-09-12T07:19:24;20.10;99.90
48666;DHT22;34452;50.796;4.994;2023-09-12T07:21:50;20.10;99.90
48666;DHT22;34452;50.796;4.994;2023-09-12T07:24:15;20.20;99.90
48666;DHT22;34452;50.796;4.994;2023-09-12T07:26:41;20.30;99.90
48666;DHT22;34452;50.796;4.994;2023-09-12T07:29:08;20.40;99.90
48666;DHT22;34452;50.796;4.994;2023-09-12T07:31:33;20.50;99.90
48666;DHT22;34452;50.796;4.994;2023-09-12T07:33:59;20.60;99.90
48666;DHT22;34452;50.796;4.994;2023-09-12T07:36:25;20.60;99.90
48666;DHT22;34452;50.796;4.994;2023-09-12T07:38:50;20.70;99.90
48666;DHT22;34452;50.796;4.994;2023-09-12T07:41:16;20.70;99.90
48666;DHT22;34452;50.796;4.994;2023-09-12T07:43:42;20.70;99.90
48666;DHT22;34452;50.796;4.994;2023-09-12T07:46:08;20.80;99.90
48666;DHT22;34452;50.796;4.994;2023-09-12T07:48:35;20.80;99.90
48666;DHT22;34452;50.796;4.994;2023-09-12T07:51:01;20.80;99.90
48666;DHT22;34452;50.796;4.994;2023-09-12T07:53:26;20.80;99.90
48666;DHT22;34452;50.796;4.994;2023-09-12T07:55:52;20.80;99.90
48666;DHT22;34452;50.796;4.994;2023-09-12T07:58:18;20.90;99.90
48666;DHT22;34452;50.796;4.994;2023-09-12T08:00:47;20.90;99.90
48666;DHT22;34452;50.796;4.994;2023-09-12T08:03:12;20.90;99.90
48666;DHT22;34452;50.796;4.994;2023-09-12T08:05:38;20.90;99.90
48666;DHT22;34452;50.796;4.994;2023-09-12T08:08:04;21.00;99.90
48666;DHT22;34452;50.796;4.994;2023-09-12T08:10:30;21.10;99.90
48666;DHT22;34452;50.796;4.994;2023-09-12T08:12:55;21.10;99.90
48666;DHT22;34452;50.796;4.994;2023-09-12T08:15:21;21.20;99.90
48666;DHT22;34452;50.796;4.994;2023-09-12T08:17:47;21.20;99.90
48666;DHT22;34452;50.796;4.994;2023-09-12T08:20:17;21.30;99.90
48666;DHT22;34452;50.796;4.994;2023-09-12T08:22:43;21.40;99.90
48666;DHT22;34452;50.796;4.994;2023-09-12T08:25:08;21.40;99.90
48666;DHT22;34452;50.796;4.994;2023-09-12T08:27:35;21.50;99.90
48666;DHT22;34452;50.796;4.994;2023-09-12T08:30:01;21.60;99.90
48666;DHT22;34452;50.796;4.994;2023-09-12T08:32:27;21.70;99.90
48666;DHT22;34452;50.796;4.994;2023-09-12T08:34:52;21.80;99.90
48666;DHT22;34452;50.796;4.994;2023-09-12T08:37:18;21.80;99.90
48666;DHT22;34452;50.796;4.994;2023-09-12T08:39:44;22.00;99.90
48666;DHT22;34452;50.796;4.994;2023-09-12T08:42:16;22.10;99.90
48666;DHT22;34452;50.796;4.994;2023-09-12T08:44:42;22.20;99.90
48666;DHT22;34452;50.796;4.994;2023-09-12T08:47:08;22.30;99.90
48666;DHT22;34452;50.796;4.994;2023-09-12T08:49:37;22.30;99.90
48666;DHT22;34452;50.796;4.994;2023-09-12T08:52:04;22.40;99.90
48666;DHT22;34452;50.796;4.994;2023-09-12T08:54:30;22.40;99.90
48666;DHT22;34452;50.796;4.994;2023-09-12T08:56:55;22.30;99.90
48666;DHT22;34452;50.796;4.994;2023-09-12T08:59:22;22.30;99.90
48666;DHT22;34452;50.796;4.994;2023-09-12T09:01:47;22.30;99.90
48666;DHT22;34452;50.796;4.994;2023-09-12T09:04:16;22.30;99.90
48666;DHT22;34452;50.796;4.994;2023-09-12T09:06:42;22.40;99.90
48666;DHT22;34452;50.796;4.994;2023-09-12T09:09:08;22.50;99.90
48666;DHT22;34452;50.796;4.994;2023-09-12T09:11:34;22.60;99.90
48666;DHT22;34452;50.796;4.994;2023-09-12T09:14:01;22.60;99.90
48666;DHT22;34452;50.796;4.994;2023-09-12T09:16:28;22.60;99.90
48666;DHT22;34452;50.796;4.994;2023-09-12T09:18:54;22.60;99.90
48666;DHT22;34452;50.796;4.994;2023-09-12T09:21:27;22.60;99.90
48666;DHT22;34452;50.796;4.994;2023-09-12T09:23:54;22.60;99.90
48666;DHT22;34452;50.796;4.994;2023-09-12T09:26:20;22.70;99.90
48666;DHT22;34452;50.796;4.994;2023-09-12T09:28:46;22.70;99.90
48666;DHT22;34452;50.796;4.994;2023-09-12T09:31:25;22.80;99.90
48666;DHT22;34452;50.796;4.994;2023-09-12T09:33:51;22.90;99.90
48666;DHT22;34452;50.796;4.994;2023-09-12T09:36:17;23.10;99.90
48666;DHT22;34452;50.796;4.994;2023-09-12T09:38:43;23.10;99.90
48666;DHT22;34452;50.796;4.994;2023-09-12T09:41:08;23.10;99.90
48666;DHT22;34452;50.796;4.994;2023-09-12T09:43:34;23.10;99.90
48666;DHT22;34452;50.796;4.994;2023-09-12T09:46:00;23.10;99.90
48666;DHT22;34452;50.796;4.994;2023-09-12T09:48:27;23.00;99.90
48666;DHT22;34452;50.796;4.994;2023-09-12T09:50:52;23.10;99.90
48666;DHT22;34452;50.796;4.994;2023-09-12T09:53:26;23.10;99.90
48666;DHT22;34452;50.796;4.994;2023-09-12T09:55:51;23.20;99.90
48666;DHT22;34452;50.796;4.994;2023-09-12T09:58:17;23.30;99.90
48666;DHT22;34452;50.796;4.994;2023-09-12T10:00:43;23.40;99.90
48666;DHT22;34452;50.796;4.994;2023-09-12T10:03:09;23.50;99.90
48666;DHT22;34452;50.796;4.994;2023-09-12T10:05:37;23.50;99.90
48666;DHT22;34452;50.796;4.994;2023-09-12T10:08:03;23.50;99.90
48666;DHT22;34452;50.796;4.994;2023-09-12T10:10:31;23.50;99.90
48666;DHT22;34452;50.796;4.994;2023-09-12T10:12:58;23.50;99.90
48666;DHT22;34452;50.796;4.994;2023-09-12T10:15:26;23.50;99.90
48666;DHT22;34452;50.796;4.994;2023-09-12T10:17:55;23.60;99.90
48666;DHT22;34452;50.796;4.994;2023-09-12T10:20:24;23.60;99.90
48666;DHT22;34452;50.796;4.994;2023-09-12T10:25:24;23.70;99.90
48666;DHT22;34452;50.796;4.994;2023-09-12T10:27:51;23.80;99.90
48666;DHT22;34452;50.796;4.994;2023-09-12T10:30:18;23.80;99.90
48666;DHT22;34452;50.796;4.994;2023-09-12T10:32:45;23.80;99.90
48666;DHT22;34452;50.796;4.994;2023-09-12T10:35:11;23.90;99.90
48666;DHT22;34452;50.796;4.994;2023-09-12T10:37:37;24.00;99.90
48666;DHT22;34452;50.796;4.994;2023-09-12T10:40:03;24.00;99.90
48666;DHT22;34452;50.796;4.994;2023-09-12T10:42:31;24.10;99.90
48666;DHT22;34452;50.796;4.994;2023-09-12T10:44:57;24.10;99.90
48666;DHT22;34452;50.796;4.994;2023-09-12T10:47:24;24.20;99.90
48666;DHT22;34452;50.796;4.994;2023-09-12T10:49:50;24.30;99.90
48666;DHT22;34452;50.796;4.994;2023-09-12T10:52:28;24.40;99.90
48666;DHT22;34452;50.796;4.994;2023-09-12T10:54:54;24.50;99.90
48666;DHT22;34452;50.796;4.994;2023-09-12T10:57:20;24.50;99.90
48666;DHT22;34452;50.796;4.994;2023-09-12T11:02:33;24.60;99.90
48666;DHT22;34452;50.796;4.994;2023-09-12T11:05:00;24.80;99.90
48666;DHT22;34452;50.796;4.994;2023-09-12T11:07:33;24.80;99.90
48666;DHT22;34452;50.796;4.994;2023-09-12T11:12:46;24.80;99.90
48666;DHT22;34452;50.796;4.994;2023-09-12T11:15:13;24.70;99.90
48666;DHT22;34452;50.796;4.994;2023-09-12T11:17:41;24.50;99.90
48666;DHT22;34452;50.796;4.994;2023-09-12T11:20:06;24.50;99.90
48666;DHT22;34452;50.796;4.994;2023-09-12T11:22:45;24.70;99.90
48666;DHT22;34452;50.796;4.994;2023-09-12T11:25:21;24.90;99.90
48666;DHT22;34452;50.796;4.994;2023-09-12T11:30:24;25.40;99.90
48666;DHT22;34452;50.796;4.994;2023-09-12T11:32:50;25.50;99.90
48666;DHT22;34452;50.796;4.994;2023-09-12T11:35:17;25.60;99.90
48666;DHT22;34452;50.796;4.994;2023-09-12T11:37:50;25.70;99.90
48666;DHT22;34452;50.796;4.994;2023-09-12T11:40:17;25.60;99.90
48666;DHT22;34452;50.796;4.994;2023-09-12T11:42:43;25.80;99.90
48666;DHT22;34452;50.796;4.994;2023-09-12T11:45:09;26.10;99.90
48666;DHT22;34452;50.796;4.994;2023-09-12T11:47:41;26.30;99.90
48666;DHT22;34452;50.796;4.994;2023-09-12T11:50:08;26.50;99.90
48666;DHT22;34452;50.796;4.994;2023-09-12T11:52:37;26.40;99.90
48666;DHT22;34452;50.796;4.994;2023-09-12T11:55:05;26.30;99.90
48666;DHT22;34452;50.796;4.994;2023-09-12T11:57:32;26.10;99.90
48666;DHT22;34452;50.796;4.994;2023-09-12T11:59:58;25.80;99.90
48666;DHT22;34452;50.796;4.994;2023-09-12T12:02:23;25.60;99.90
48666;DHT22;34452;50.796;4.994;2023-09-12T12:04:49;25.40;99.90
48666;DHT22;34452;50.796;4.994;2023-09-12T12:07:15;25.20;99.90
48666;DHT22;34452;50.796;4.994;2023-09-12T12:09:41;25.20;99.90
48666;DHT22;34452;50.796;4.994;2023-09-12T12:12:13;25.40;99.90
48666;DHT22;34452;50.796;4.994;2023-09-12T12:14:40;25.50;99.90
48666;DHT22;34452;50.796;4.994;2023-09-12T12:17:09;25.60;99.90
48666;DHT22;34452;50.796;4.994;2023-09-12T12:19:35;25.80;99.90
48666;DHT22;34452;50.796;4.994;2023-09-12T12:22:02;25.90;99.90
48666;DHT22;34452;50.796;4.994;2023-09-12T12:24:41;26.10;99.90
48666;DHT22;34452;50.796;4.994;2023-09-12T12:27:07;26.20;99.90
48666;DHT22;34452;50.796;4.994;2023-09-12T12:29:34;26.30;99.90
48666;DHT22;34452;50.796;4.994;2023-09-12T12:32:00;26.30;99.90
48666;DHT22;34452;50.796;4.994;2023-09-12T12:34:27;26.40;99.90
48666;DHT22;34452;50.796;4.994;2023-09-12T12:36:53;26.60;99.90
48666;DHT22;34452;50.796;4.994;2023-09-12T12:39:20;26.60;99.90
48666;DHT22;34452;50.796;4.994;2023-09-12T12:41:45;26.50;99.90
48666;DHT22;34452;50.796;4.994;2023-09-12T12:44:11;26.40;99.90
48666;DHT22;34452;50.796;4.994;2023-09-12T12:46:51;26.20;99.90
48666;DHT22;34452;50.796;4.994;2023-09-12T12:49:17;26.20;99.90
48666;DHT22;34452;50.796;4.994;2023-09-12T12:51:44;26.50;99.90
48666;DHT22;34452;50.796;4.994;2023-09-12T12:54:09;26.60;99.90
48666;DHT22;34452;50.796;4.994;2023-09-12T12:56:35;26.40;99.90
48666;DHT22;34452;50.796;4.994;2023-09-12T12:59:01;26.40;99.90
48666;DHT22;34452;50.796;4.994;2023-09-12T13:01:35;26.30;99.90
48666;DHT22;34452;50.796;4.994;2023-09-12T13:04:01;26.30;99.90
48666;DHT22;34452;50.796;4.994;2023-09-12T13:06:27;26.30;99.90
48666;DHT22;34452;50.796;4.994;2023-09-12T13:08:55;26.30;99.90
48666;DHT22;34452;50.796;4.994;2023-09-12T13:11:22;26.50;99.90
48666;DHT22;34452;50.796;4.994;2023-09-12T13:13:48;26.50;99.90
48666;DHT22;34452;50.796;4.994;2023-09-12T13:16:16;26.60;99.90
48666;DHT22;34452;50.796;4.994;2023-09-12T13:18:42;26.50;99.90
48666;DHT22;34452;50.796;4.994;2023-09-12T13:21:08;26.40;99.90
48666;DHT22;34452;50.796;4.994;2023-09-12T13:23:35;26.40;99.90
48666;DHT22;34452;50.796;4.994;2023-09-12T13:26:01;26.40;99.90
48666;DHT22;34452;50.796;4.994;2023-09-12T13:28:26;26.40;99.90
48666;DHT22;34452;50.796;4.994;2023-09-12T13:30:52;26.80;99.90
48666;DHT22;34452;50.796;4.994;2023-09-12T13:33:18;27.10;99.90
48666;DHT22;34452;50.796;4.994;2023-09-12T13:35:43;27.10;99.90
48666;DHT22;34452;50.796;4.994;2023-09-12T13:38:09;27.20;99.90
48666;DHT22;34452;50.796;4.994;2023-09-12T13:40:38;27.30;99.90
48666;DHT22;34452;50.796;4.994;2023-09-12T13:43:07;27.30;99.90
48666;DHT22;34452;50.796;4.994;2023-09-12T13:45:33;27.10;99.90
48666;DHT22;34452;50.796;4.994;2023-09-12T13:47:59;27.10;99.90
48666;DHT22;34452;50.796;4.994;2023-09-12T13:50:25;26.90;99.90
48666;DHT22;34452;50.796;4.994;2023-09-12T13:53:02;26.90;99.90
48666;DHT22;34452;50.796;4.994;2023-09-12T13:55:34;27.00;99.90
48666;DHT22;34452;50.796;4.994;2023-09-12T13:58:03;27.10;99.90
48666;DHT22;34452;50.796;4.994;2023-09-12T14:00:29;27.10;99.90
48666;DHT22;34452;50.796;4.994;2023-09-12T14:02:55;27.10;99.90
48666;DHT22;34452;50.796;4.994;2023-09-12T14:05:21;27.00;99.90
48666;DHT22;34452;50.796;4.994;2023-09-12T14:07:46;26.90;99.90
48666;DHT22;34452;50.796;4.994;2023-09-12T14:10:12;26.70;99.90
48666;DHT22;34452;50.796;4.994;2023-09-12T14:12:38;26.60;99.90
48666;DHT22;34452;50.796;4.994;2023-09-12T14:15:03;26.60;99.90
48666;DHT22;34452;50.796;4.994;2023-09-12T14:17:31;26.50;99.90
48666;DHT22;34452;50.796;4.994;2023-09-12T14:19:56;26.50;99.90
48666;DHT22;34452;50.796;4.994;2023-09-12T14:22:22;26.40;99.90
48666;DHT22;34452;50.796;4.994;2023-09-12T14:24:48;26.30;99.90
48666;DHT22;34452;50.796;4.994;2023-09-12T14:27:13;26.20;99.90
48666;DHT22;34452;50.796;4.994;2023-09-12T14:29:39;26.10;99.90
48666;DHT22;34452;50.796;4.994;2023-09-12T14:32:05;26.00;99.90
48666;DHT22;34452;50.796;4.994;2023-09-12T14:34:30;26.00;99.90
48666;DHT22;34452;50.796;4.994;2023-09-12T14:36:58;25.90;99.90
48666;DHT22;34452;50.796;4.994;2023-09-12T14:39:24;25.90;99.90
48666;DHT22;34452;50.796;4.994;2023-09-12T14:41:50;25.80;99.90
48666;DHT22;34452;50.796;4.994;2023-09-12T14:44:26;25.80;99.90
48666;DHT22;34452;50.796;4.994;2023-09-12T14:46:53;25.80;99.90
48666;DHT22;34452;50.796;4.994;2023-09-12T14:49:19;25.80;99.90
48666;DHT22;34452;50.796;4.994;2023-09-12T14:51:44;25.80;99.90
48666;DHT22;34452;50.796;4.994;2023-09-12T14:54:10;25.70;99.90
48666;DHT22;34452;50.796;4.994;2023-09-12T14:56:36;25.70;99.90
48666;DHT22;34452;50.796;4.994;2023-09-12T14:59:03;25.60;99.90
48666;DHT22;34452;50.796;4.994;2023-09-12T15:01:28;25.60;99.90
48666;DHT22;34452;50.796;4.994;2023-09-12T15:03:54;25.50;99.90
48666;DHT22;34452;50.796;4.994;2023-09-12T15:06:20;25.50;99.90
48666;DHT22;34452;50.796;4.994;2023-09-12T15:08:45;25.40;99.90
48666;DHT22;34452;50.796;4.994;2023-09-12T15:11:11;25.40;99.90
48666;DHT22;34452;50.796;4.994;2023-09-12T15:13:37;25.40;99.90
48666;DHT22;34452;50.796;4.994;2023-09-12T15:16:03;25.40;99.90
48666;DHT22;34452;50.796;4.994;2023-09-12T15:18:29;25.30;99.90
48666;DHT22;34452;50.796;4.994;2023-09-12T15:20:54;25.20;99.90
48666;DHT22;34452;50.796;4.994;2023-09-12T15:23:20;25.10;99.90
48666;DHT22;34452;50.796;4.994;2023-09-12T15:25:51;25.00;99.90
48666;DHT22;34452;50.796;4.994;2023-09-12T15:28:17;25.00;99.90
48666;DHT22;34452;50.796;4.994;2023-09-12T15:30:42;24.90;99.90
48666;DHT22;34452;50.796;4.994;2023-09-12T15:33:10;24.80;99.90
48666;DHT22;34452;50.796;4.994;2023-09-12T15:35:36;24.60;99.90
48666;DHT22;34452;50.796;4.994;2023-09-12T15:38:02;24.40;99.90